Terminal Aerodrome Forecast
Issued by NWS Sioux Falls, SD

Home | Current Version | Previous Version | Text Only | Print | Product List | Glossary On
Versions: 1 2 3 4 5 6 7 8 9 10 11 12 13
793
FTUS43 KFSD 271537 AAC
TAFHON
TAF AMD
KHON 271537Z 2716/2812 18009KT P6SM BKN011 BKN100
     FM271700 17009KT P6SM SCT250
     FM280000 18005KT P6SM BKN050
     FM280600 15006KT P6SM SKC=

USA.gov is the U.S. government's official web portal to all federal, state and local government web resources and services.